VABP/BHO METAR and TAF weather

Enter ICAO airport designator
Station Type Date Time Source
VABP METAR 2021/05/12 21:00 UTC NOAA

VABP 122100Z 32004KT 6000 FEW100 27/15 Q1005 NOSIG


Station Type Date Time Source
VABP Decoded METAR 2021/05/12 21:00 UTC NOAA

Bhopal / Bairagarh, India (VABP) 23-17N 077-21E 523M
May 12, 2021 - 05:00 PM EDT / 2021.05.12 2100 UTC
Wind: from the NW (320 degrees) at 5 MPH (4 KT):0
Visibility: 3 mile(s):0
Sky conditions: mostly clear
Temperature: 80 F (27 C)
Dew Point: 59 F (15 C)
Relative Humidity: 47%
Pressure (altimeter): 29.68 in. Hg (1005 hPa)
ob: VABP 122100Z 32004KT 6000 FEW100 27/15 Q1005 NOSIG
cycle: 21

Station Type Date Time Source
VABP TAF 2021/03/31 00:00 UTC NOAA

TAF VABP 302300Z 3100/0106 27010KT 5000 HZ NSC
BECMG 3104/3106 29010G20KT 6000 NSC
BECMG 3115/3117 27010KT 5000 HZ NSC
BECMG 0104/0106 27010G20KT 6000 NSC

Example: see airport list